首页
METAR-TAF:

METAR-TAF

机场 :

法赫德国王国际机场

达曼, 沙特阿拉伯

纬度: 26-28N, 经度: 049-47E, 海拔: 22米

当前天气观测

该预报发布于9分钟前的08:00 UTC
风速7节,风向
温度 31°C
湿度 26%
气压 1012 hPa
能见度10公里或以上
1500米以下无云,无积雨云

METAR: OEDF 030800Z 09007KT CAVOK 31/09 Q1012 NOSIG

时间: 11:09 (08:09 UTC)

预报

该预报发布于4小时和9分钟前的04:00 UTC
预报有效从03日的 06点(UTC)到 04日的 12点(UTC)
风速8节,风向北转西北
能見度: 8000
短暂存在
从 03日的 06点(UTC)到 03日的 10点(UTC)
能見度: 4000
少量云层高于3000英尺, 积雨云.
散云层高于4000英尺
雷暴, 雨
成为
从 03日的 10点(UTC)到 03日的 12点(UTC)
风速12节,风向东北

TAF: OEDF 030400Z 0306/0412 34008KT 8000 NSC TEMPO 0306/0310 4000 TSRA FEW030CB SCT040 BECMG 0310/0312 04012KT

超过4000个机场的气象观测和天气预报(METAR&TAF报告)。

可查询的气象台以黄色和红色小点在地图上表示。

将鼠标移到小点上方,可查看气象台名称。

然后点击查看天气观测和预报。

如需切换地图:点击带黑十字的绿色按钮放大地图;点击带横线的绿色按钮缩小地图;或者点击绿色箭头查看邻近地区的地图。


METAR-TAF: